Time;durP1;ratioP1;P1;durP2;ratioP2;P2;SDS_P1;SDS_P2;PMS_P1;PMS_P2;Temp;Humidity;BMP_temperature;BMP_pressure;BME280_temperature;BME280_humidity;BME280_pressure;Samples;Min_cycle;Max_cycle;Signal;HPM_P1;HPM_P2
2023/09/17 00:00:09;;;;;;;3.67;1.48;;;;;;;22.80;68.36;99193.88;337129;28;4665;-62
2023/09/17 00:00:22;;;;;;;1.55;1.30;;;;;;;22.74;68.46;99187.34;335442;28;18006;-62
2023/09/17 00:00:34;;;;;;;1.52;1.23;;;;;;;22.74;68.68;99192.63;338982;28;4667;-61
2023/09/17 00:00:46;;;;;;;1.80;1.45;;;;;;;22.76;68.24;99186.34;336344;28;12204;-62
2023/09/17 00:00:58;;;;;;;1.73;1.35;;;;;;;22.77;68.57;99190.69;338654;28;5740;-63
2023/09/17 00:01:11;;;;;;;2.00;1.35;;;;;;;22.78;68.71;99189.69;337995;28;5411;-62
2023/09/17 00:01:23;;;;;;;1.98;1.30;;;;;;;22.77;68.28;99194.16;335852;28;18321;-62
2023/09/17 00:01:38;;;;;;;1.88;1.45;;;;;;;22.78;68.40;99184.38;336444;28;5353;-62
2023/09/17 00:01:51;;;;;;;2.17;1.55;;;;;;;22.79;68.33;99191.38;336599;28;5506;-62
2023/09/17 00:02:03;;;;;;;2.30;1.50;;;;;;;22.79;68.76;99186.06;338507;28;4692;-62
2023/09/17 00:02:16;;;;;;;2.03;1.40;;;;;;;22.79;68.87;99186.91;338598;28;4802;-62
2023/09/17 00:02:28;;;;;;;2.10;1.30;;;;;;;22.78;68.65;99187.03;335933;28;18431;-62
2023/09/17 00:02:40;;;;;;;2.30;1.35;;;;;;;22.80;68.39;99193.03;339000;28;4793;-61
2023/09/17 00:02:52;;;;;;;2.25;1.40;;;;;;;22.79;68.23;99192.19;338821;28;4629;-61
2023/09/17 00:03:04;;;;;;;1.98;1.40;;;;;;;22.80;68.40;99188.59;336160;28;18231;-62
2023/09/17 00:03:16;;;;;;;2.05;1.50;;;;;;;22.80;68.59;99188.59;337719;28;4652;-63
2023/09/17 00:03:28;;;;;;;2.25;1.50;;;;;;;22.82;68.15;99191.06;336085;28;18315;-62
2023/09/17 00:03:41;;;;;;;2.95;1.55;;;;;;;22.83;68.55;99198.06;339296;28;4749;-62
2023/09/17 00:03:53;;;;;;;2.90;1.55;;;;;;;22.83;68.59;99192.75;335934;28;11716;-62
2023/09/17 00:04:06;;;;;;;2.28;1.60;;;;;;;22.84;68.21;99194.44;337649;28;4542;-62
2023/09/17 00:04:19;;;;;;;2.22;1.40;;;;;;;22.86;68.17;99192.50;336648;28;5949;-62
2023/09/17 00:04:31;;;;;;;1.58;1.13;;;;;;;22.85;68.73;99196.13;338595;28;5391;-62
2023/09/17 00:04:43;;;;;;;1.10;1.00;;;;;;;22.86;68.63;99197.81;334864;28;12231;-62
2023/09/17 00:04:55;;;;;;;1.20;1.02;;;;;;;22.87;68.41;99200.28;337024;28;4742;-60
2023/09/17 00:05:07;;;;;;;1.45;1.10;;;;;;;22.87;68.24;99199.47;337286;28;5462;-62
2023/09/17 00:05:19;;;;;;;1.75;1.20;;;;;;;22.88;68.32;99195.84;335012;28;18377;-62
2023/09/17 00:05:32;;;;;;;2.53;1.25;;;;;;;22.87;68.06;99199.47;337407;28;5177;-62
2023/09/17 00:05:44;;;;;;;2.45;1.20;;;;;;;22.87;68.14;99199.47;330418;28;12007;-61
2023/09/17 00:05:56;;;;;;;2.75;1.30;;;;;;;22.88;68.02;99195.84;336623;28;4699;-62
2023/09/17 00:06:08;;;;;;;2.70;1.48;;;;;;;22.87;68.23;99200.28;337597;28;5542;-62
2023/09/17 00:06:20;;;;;;;2.33;1.48;;;;;;;22.86;68.11;99197.81;335126;28;11760;-60
2023/09/17 00:06:32;;;;;;;1.45;1.35;;;;;;;22.86;68.06;99195.16;336230;29;4557;-62
2023/09/17 00:06:44;;;;;;;1.73;1.30;;;;;;;22.87;68.06;99204.75;333828;28;18010;-61
2023/09/17 00:06:56;;;;;;;1.90;1.40;;;;;;;22.85;67.99;99206.72;337903;28;4641;-62
2023/09/17 00:07:09;;;;;;;2.90;1.50;;;;;;;22.85;67.93;99201.41;333783;28;5260;-62
2023/09/17 00:07:21;;;;;;;3.25;1.63;;;;;;;22.84;68.33;99203.25;335980;28;18452;-62
2023/09/17 00:07:33;;;;;;;2.10;1.45;;;;;;;22.84;68.21;99205.03;338395;28;4841;-62
2023/09/17 00:07:45;;;;;;;2.00;1.30;;;;;;;22.83;67.99;99203.38;336293;28;16669;-62
2023/09/17 00:07:58;;;;;;;1.65;1.20;;;;;;;22.79;68.25;99213.41;338151;28;4767;-62
2023/09/17 00:08:10;;;;;;;1.83;1.38;;;;;;;22.77;68.12;99201.28;336207;28;11624;-61
2023/09/17 00:08:22;;;;;;;2.60;1.50;;;;;;;22.76;68.09;99207.53;338565;28;4596;-61
2023/09/17 00:08:34;;;;;;;2.65;1.63;;;;;;;22.76;68.19;99207.53;338978;28;4675;-62
2023/09/17 00:08:46;;;;;;;2.55;1.60;;;;;;;22.72;68.29;99205.19;336032;28;17958;-63
2023/09/17 00:08:58;;;;;;;1.80;1.42;;;;;;;22.72;68.32;99210.47;338360;28;4577;-62
2023/09/17 00:09:10;;;;;;;3.05;1.50;;;;;;;22.68;68.39;99210.91;335995;28;18212;-62
2023/09/17 00:09:22;;;;;;;4.53;1.63;;;;;;;22.66;68.46;99208.38;338617;28;4649;-62
2023/09/17 00:09:34;;;;;;;4.38;1.60;;;;;;;22.64;68.20;99210.34;338890;28;4592;-61
2023/09/17 00:09:46;;;;;;;3.08;1.58;;;;;;;22.60;68.50;99214.22;336386;28;18275;-62
2023/09/17 00:10:01;;;;;;;3.33;1.58;;;;;;;22.53;68.71;99213.94;335725;28;18617;-62
2023/09/17 00:10:13;;;;;;;3.10;1.40;;;;;;;22.53;68.64;99218.41;338417;28;4661;-62
2023/09/17 00:10:25;;;;;;;2.38;1.30;;;;;;;22.49;68.79;99217.00;336007;28;19180;-62
2023/09/17 00:10:39;;;;;;;1.52;1.30;;;;;;;22.48;69.14;99212.69;339000;28;4618;-61
2023/09/17 00:10:51;;;;;;;1.77;1.42;;;;;;;22.50;68.85;99218.69;335813;28;18989;-62
2023/09/17 00:11:03;;;;;;;2.08;1.40;;;;;;;22.48;69.14;99215.34;338631;28;4863;-62
2023/09/17 00:11:18;;;;;;;2.33;1.33;;;;;;;22.47;69.04;99213.66;334643;28;17845;-62
2023/09/17 00:11:30;;;;;;;4.18;1.80;;;;;;;22.46;69.23;99210.16;338747;28;4586;-61
2023/09/17 00:11:42;;;;;;;4.07;1.60;;;;;;;22.44;69.07;99213.94;336209;28;18430;-62
2023/09/17 00:11:54;;;;;;;3.00;1.38;;;;;;;22.40;69.32;99212.53;338416;28;4577;-62
2023/09/17 00:12:06;;;;;;;1.60;1.17;;;;;;;22.36;69.32;99211.13;335970;28;18222;-61
2023/09/17 00:12:19;;;;;;;1.75;1.30;;;;;;;22.36;69.48;99206.66;338835;28;4655;-62
2023/09/17 00:12:31;;;;;;;1.67;1.27;;;;;;;22.36;69.29;99214.63;334976;28;12047;-60
2023/09/17 00:12:43;;;;;;;1.95;1.30;;;;;;;22.38;69.54;99209.19;337759;28;5554;-62
2023/09/17 00:12:56;;;;;;;2.53;1.42;;;;;;;22.39;69.11;99218.78;337729;28;4673;-62
2023/09/17 00:13:08;;;;;;;3.70;1.40;;;;;;;22.38;69.46;99212.66;332254;28;4710;-62
2023/09/17 00:13:20;;;;;;;3.90;1.58;;;;;;;22.39;69.41;99205.56;338858;28;4791;-62
2023/09/17 00:13:33;;;;;;;2.17;1.40;;;;;;;22.38;69.56;99214.47;328163;28;5658;-62
2023/09/17 00:13:45;;;;;;;2.30;1.60;;;;;;;22.35;69.65;99215.56;337925;28;6737;-59
2023/09/17 00:13:57;;;;;;;2.22;1.50;;;;;;;22.35;69.50;99210.28;335470;28;11652;-62
2023/09/17 00:14:09;;;;;;;2.40;1.40;;;;;;;22.36;69.45;99211.13;338361;28;5848;-61
2023/09/17 00:14:21;;;;;;;3.10;1.40;;;;;;;22.33;69.63;99209.56;338445;28;4553;-62
2023/09/17 00:14:34;;;;;;;3.13;1.40;;;;;;;22.31;69.35;99212.34;336259;28;18213;-62
2023/09/17 00:14:46;;;;;;;3.20;1.40;;;;;;;22.28;69.85;99212.63;339031;28;5362;-62
2023/09/17 00:14:58;;;;;;;3.00;1.40;;;;;;;22.28;69.42;99214.47;335432;28;17649;-62
2023/09/17 00:15:10;;;;;;;2.92;1.40;;;;;;;22.28;69.68;99217.94;338913;28;4587;-61
2023/09/17 00:15:25;;;;;;;2.40;1.52;;;;;;;22.27;69.62;99213.59;335971;28;19319;-62
2023/09/17 00:15:37;;;;;;;5.40;1.63;;;;;;;22.29;69.68;99210.81;336187;28;5403;-61
2023/09/17 00:15:49;;;;;;;5.17;1.60;;;;;;;22.29;69.49;99216.13;338331;28;5020;-62
2023/09/17 00:16:01;;;;;;;1.60;1.35;;;;;;;22.29;69.66;99218.75;338655;28;4684;-62
2023/09/17 00:16:14;;;;;;;2.90;1.60;;;;;;;22.27;69.40;99216.25;335923;28;12109;-62
2023/09/17 00:16:31;;;;;;;2.92;1.60;;;;;;;22.25;69.98;99218.19;338689;28;4613;-62
2023/09/17 00:16:45;;;;;;;3.08;1.45;;;;;;;22.23;69.94;99212.16;336318;28;17812;-63
2023/09/17 00:16:57;;;;;;;5.65;1.60;;;;;;;22.21;69.55;99219.41;338678;28;4929;-62
2023/09/17 00:17:12;;;;;;;6.32;1.60;;;;;;;22.21;69.79;99214.09;335350;28;17959;-60
2023/09/17 00:17:24;;;;;;;2.42;1.30;;;;;;;22.23;69.66;99212.16;331156;28;18472;-62
2023/09/17 00:17:37;;;;;;;2.40;1.30;;;;;;;22.25;69.75;99210.25;338989;28;5154;-61
2023/09/17 00:17:49;;;;;;;2.42;1.40;;;;;;;22.24;70.15;99213.88;333232;28;18021;-62
2023/09/17 00:18:01;;;;;;;1.77;1.30;;;;;;;22.23;69.74;99217.47;338253;28;4922;-62
2023/09/17 00:18:14;;;;;;;1.45;1.20;;;;;;;22.24;70.05;99213.06;336112;28;4680;-62
2023/09/17 00:18:26;;;;;;;1.65;1.30;;;;;;;22.24;69.65;99213.88;338930;28;4669;-62
2023/09/17 00:18:38;;;;;;;2.10;1.38;;;;;;;22.24;69.81;99211.22;336333;28;18622;-61
2023/09/17 00:18:50;;;;;;;2.40;1.50;;;;;;;22.22;70.16;99205.22;338484;28;4663;-62
2023/09/17 00:19:06;;;;;;;1.95;1.38;;;;;;;22.22;70.32;99215.78;330891;28;18025;-62
2023/09/17 00:19:19;;;;;;;1.73;1.38;;;;;;;22.22;70.19;99213.16;337495;28;4752;-60
2023/09/17 00:19:32;;;;;;;1.90;1.52;;;;;;;22.22;69.95;99213.16;334655;28;19127;-62
2023/09/17 00:19:44;;;;;;;2.35;1.70;;;;;;;22.22;70.40;99204.38;335737;28;17573;-61
2023/09/17 00:19:57;;;;;;;2.30;1.50;;;;;;;22.23;69.86;99214.81;338092;28;4740;-62
2023/09/17 00:20:13;;;;;;;2.13;1.40;;;;;;;22.24;69.96;99208.59;335825;28;11919;-62
2023/09/17 00:20:25;;;;;;;1.77;1.40;;;;;;;22.23;70.49;99217.47;331230;28;17607;-63
2023/09/17 00:20:37;;;;;;;1.77;1.50;;;;;;;22.24;70.09;99213.88;338879;28;4800;-61
2023/09/17 00:20:49;;;;;;;1.60;1.40;;;;;;;22.24;70.00;99213.88;336179;28;5412;-62
2023/09/17 00:21:01;;;;;;;1.43;1.30;;;;;;;22.23;70.17;99212.16;338125;28;5892;-62
2023/09/17 00:21:13;;;;;;;1.50;1.35;;;;;;;22.25;70.30;99214.72;338290;28;4677;-63
2023/09/17 00:21:25;;;;;;;2.30;1.30;;;;;;;22.26;70.20;99211.94;336505;28;4676;-61
2023/09/17 00:21:37;;;;;;;2.38;1.33;;;;;;;22.27;70.17;99212.78;338859;28;4681;-62
2023/09/17 00:21:49;;;;;;;2.63;1.42;;;;;;;22.27;69.83;99213.59;338781;28;4694;-61
2023/09/17 00:22:02;;;;;;;2.35;1.60;;;;;;;22.29;69.80;99216.13;331380;28;18192;-62
2023/09/17 00:22:15;;;;;;;2.15;1.50;;;;;;;22.27;69.60;99210.94;334742;28;18090;-62
2023/09/17 00:22:27;;;;;;;1.63;1.40;;;;;;;22.27;69.82;99213.59;337581;28;4654;-62
2023/09/17 00:22:39;;;;;;;2.30;1.70;;;;;;;22.27;70.02;99213.59;337890;28;4721;-61
2023/09/17 00:22:51;;;;;;;2.08;1.58;;;;;;;22.26;69.71;99213.75;334791;28;17882;-60
2023/09/17 00:23:04;;;;;;;1.88;1.40;;;;;;;22.27;69.88;99212.78;337468;28;5347;-60
2023/09/17 00:23:16;;;;;;;1.65;1.40;;;;;;;22.25;69.95;99204.94;330449;28;17912;-60
2023/09/17 00:23:28;;;;;;;2.72;1.50;;;;;;;22.24;70.10;99213.88;337537;28;5394;-62
2023/09/17 00:23:40;;;;;;;3.40;1.50;;;;;;;22.24;70.30;99213.88;335176;28;12588;-61
2023/09/17 00:23:52;;;;;;;2.50;1.48;;;;;;;22.23;70.13;99212.16;337376;28;4684;-62
2023/09/17 00:24:05;;;;;;;2.60;1.50;;;;;;;22.22;69.95;99215.78;336923;28;4704;-60
2023/09/17 00:24:17;;;;;;;2.17;1.50;;;;;;;22.21;69.93;99218.56;335604;28;18338;-61
2023/09/17 00:24:29;;;;;;;1.90;1.60;;;;;;;22.19;70.15;99215.22;338725;28;4887;-62
2023/09/17 00:24:41;;;;;;;3.17;1.55;;;;;;;22.16;70.17;99211.03;336981;28;18314;-61
2023/09/17 00:24:53;;;;;;;3.70;1.50;;;;;;;22.15;70.13;99212.00;332745;28;17695;-63
2023/09/17 00:25:05;;;;;;;3.72;1.50;;;;;;;22.11;70.16;99214.09;338851;28;5220;-62
2023/09/17 00:25:17;;;;;;;2.33;1.52;;;;;;;22.08;70.50;99216.19;333003;28;18284;-63
2023/09/17 00:25:29;;;;;;;2.00;1.45;;;;;;;22.06;70.35;99212.81;337596;28;4699;-61
2023/09/17 00:25:42;;;;;;;1.92;1.50;;;;;;;22.06;70.91;99207.53;335301;28;18351;-60
2023/09/17 00:25:54;;;;;;;2.58;1.50;;;;;;;22.05;70.54;99208.50;337262;28;5200;-62
2023/09/17 00:26:07;;;;;;;2.78;1.40;;;;;;;22.07;70.61;99212.69;334882;28;16431;-61
2023/09/17 00:26:19;;;;;;;2.97;1.45;;;;;;;22.08;70.82;99213.53;331588;29;4835;-60
2023/09/17 00:26:31;;;;;;;1.95;1.40;;;;;;;22.08;70.43;99214.34;335054;28;4701;-63
2023/09/17 00:26:43;;;;;;;1.83;1.42;;;;;;;22.09;70.71;99215.19;337676;28;4629;-61
2023/09/17 00:26:55;;;;;;;2.05;1.60;;;;;;;22.09;70.66;99215.19;337310;28;4872;-62
2023/09/17 00:27:07;;;;;;;2.28;1.70;;;;;;;22.10;71.11;99206.28;334169;28;18855;-62
2023/09/17 00:27:19;;;;;;;1.90;1.50;;;;;;;22.11;70.70;99207.94;337629;28;4663;-62
2023/09/17 00:27:32;;;;;;;1.80;1.30;;;;;;;22.10;71.04;99211.59;337348;28;18243;-63
2023/09/17 00:27:44;;;;;;;1.75;1.30;;;;;;;22.11;70.69;99214.09;334773;28;17692;-61
2023/09/17 00:27:58;;;;;;;1.80;1.48;;;;;;;22.11;70.40;99208.81;331875;28;5407;-59
2023/09/17 00:28:10;;;;;;;1.90;1.70;;;;;;;22.12;70.82;99214.94;336264;28;18248;-60
2023/09/17 00:28:22;;;;;;;1.77;1.60;;;;;;;22.13;70.68;99219.25;336372;28;17881;-60
2023/09/17 00:28:34;;;;;;;1.70;1.50;;;;;;;22.13;70.73;99212.16;337605;28;5360;-60
2023/09/17 00:28:46;;;;;;;2.13;1.50;;;;;;;22.14;70.29;99218.28;337353;28;4558;-62
2023/09/17 00:29:00;;;;;;;2.25;1.60;;;;;;;22.14;70.37;99218.28;334506;28;17002;-62
2023/09/17 00:29:12;;;;;;;4.80;1.73;;;;;;;22.15;70.46;99212.00;330739;28;17311;-62
2023/09/17 00:29:25;;;;;;;4.65;1.80;;;;;;;22.16;70.33;99220.81;337486;28;4722;-62
2023/09/17 00:29:37;;;;;;;3.35;1.60;;;;;;;22.16;70.44;99216.34;334765;28;12073;-61
2023/09/17 00:29:49;;;;;;;1.65;1.35;;;;;;;22.17;70.07;99218.00;337055;28;6323;-62
2023/09/17 00:30:01;;;;;;;2.08;1.30;;;;;;;22.17;70.41;99215.34;337652;28;5417;-60
2023/09/17 00:30:13;;;;;;;2.10;1.40;;;;;;;22.20;70.32;99217.75;335136;28;17919;-62
2023/09/17 00:30:27;;;;;;;2.20;1.50;;;;;;;22.19;70.12;99216.06;337583;28;5596;-61
2023/09/17 00:30:39;;;;;;;1.95;1.45;;;;;;;22.21;70.37;99214.09;334708;28;18277;-62
2023/09/17 00:30:51;;;;;;;2.03;1.40;;;;;;;22.22;70.09;99215.78;333834;28;4586;-62
2023/09/17 00:31:03;;;;;;;2.00;1.48;;;;;;;22.22;70.08;99221.09;335984;28;18218;-61
2023/09/17 00:31:15;;;;;;;2.75;1.55;;;;;;;22.21;70.35;99219.41;337878;28;7275;-61
2023/09/17 00:31:27;;;;;;;5.18;1.90;;;;;;;22.22;70.52;99221.09;337621;28;12483;-62
2023/09/17 00:31:40;;;;;;;5.03;1.73;;;;;;;22.22;70.63;99221.09;335469;28;18030;-62
2023/09/17 00:31:52;;;;;;;4.47;1.65;;;;;;;22.21;70.62;99219.41;337151;28;5386;-60
2023/09/17 00:32:04;;;;;;;2.00;1.40;;;;;;;22.22;70.57;99214.97;330221;28;19314;-62
2023/09/17 00:32:16;;;;;;;2.03;1.48;;;;;;;22.22;70.03;99221.09;337364;28;4654;-62
2023/09/17 00:32:28;;;;;;;1.73;1.42;;;;;;;22.22;70.30;99215.78;335292;28;13549;-62
2023/09/17 00:32:40;;;;;;;1.92;1.52;;;;;;;22.23;70.17;99222.75;337112;28;5366;-62
2023/09/17 00:32:52;;;;;;;2.08;1.48;;;;;;;22.23;70.59;99219.28;337554;28;4982;-63
2023/09/17 00:33:04;;;;;;;1.83;1.38;;;;;;;22.22;70.75;99213.16;334255;28;19326;-62
2023/09/17 00:33:16;;;;;;;1.58;1.35;;;;;;;22.24;70.57;99221.00;337638;28;5624;-62
2023/09/17 00:33:28;;;;;;;1.50;1.40;;;;;;;22.23;70.76;99217.47;337319;28;4750;-61
2023/09/17 00:33:40;;;;;;;1.58;1.40;;;;;;;22.24;70.41;99221.00;334830;28;17551;-62
2023/09/17 00:33:52;;;;;;;2.22;1.30;;;;;;;22.23;70.48;99214.81;338189;28;4775;-61
2023/09/17 00:34:04;;;;;;;2.28;1.15;;;;;;;22.24;70.41;99216.53;332212;28;18336;-62
2023/09/17 00:34:16;;;;;;;1.90;1.20;;;;;;;22.23;70.48;99216.63;339256;28;4666;-60
2023/09/17 00:34:29;;;;;;;2.03;1.30;;;;;;;22.24;70.53;99213.88;336469;28;11854;-61
2023/09/17 00:34:41;;;;;;;1.95;1.30;;;;;;;22.24;70.50;99219.19;338487;28;5463;-62
2023/09/17 00:34:53;;;;;;;2.40;1.42;;;;;;;22.23;69.99;99211.34;338770;28;5175;-62
2023/09/17 00:35:06;;;;;;;2.80;1.50;;;;;;;22.22;70.48;99221.09;331130;28;18202;-62
2023/09/17 00:35:18;;;;;;;2.63;1.50;;;;;;;22.23;70.29;99222.75;339132;28;4701;-62
2023/09/17 00:35:30;;;;;;;2.38;1.42;;;;;;;22.22;69.99;99220.25;336384;28;18111;-63
2023/09/17 00:35:43;;;;;;;1.80;1.40;;;;;;;22.22;70.48;99220.25;338926;28;4570;-62
2023/09/17 00:35:55;;;;;;;2.58;1.48;;;;;;;22.23;70.36;99217.47;332035;28;4784;-62
2023/09/17 00:36:07;;;;;;;2.60;1.38;;;;;;;22.22;70.30;99215.78;338793;28;5185;-62
2023/09/17 00:36:19;;;;;;;2.13;1.40;;;;;;;22.22;70.04;99221.09;336113;29;11596;-61
2023/09/17 00:36:31;;;;;;;1.70;1.30;;;;;;;22.22;70.51;99221.09;333912;29;19021;-63
2023/09/17 00:36:43;;;;;;;1.88;1.50;;;;;;;22.21;70.39;99219.41;331589;28;5522;-62
2023/09/17 00:36:56;;;;;;;1.90;1.40;;;;;;;22.21;70.54;99222.03;334292;28;17938;-62
2023/09/17 00:37:10;;;;;;;2.65;1.38;;;;;;;22.22;70.75;99220.25;337548;28;4674;-62
2023/09/17 00:37:24;;;;;;;2.97;1.52;;;;;;;22.22;70.26;99213.16;336208;28;18030;-62
2023/09/17 00:37:37;;;;;;;2.13;1.55;;;;;;;22.22;70.44;99223.75;336119;28;17701;-61
2023/09/17 00:37:51;;;;;;;2.08;1.50;;;;;;;22.21;70.38;99224.69;337819;28;4864;-60
2023/09/17 00:38:03;;;;;;;2.33;1.70;;;;;;;22.21;70.58;99219.41;330034;28;17461;-62
2023/09/17 00:38:15;;;;;;;2.15;1.58;;;;;;;22.22;70.68;99220.25;335165;28;16443;-62
2023/09/17 00:38:27;;;;;;;1.60;1.38;;;;;;;22.20;70.76;99223.03;339011;28;5338;-61
2023/09/17 00:38:42;;;;;;;3.55;1.40;;;;;;;22.21;70.32;99222.03;339337;28;4821;-62
2023/09/17 00:38:57;;;;;;;3.83;1.50;;;;;;;22.22;70.50;99222.91;335144;28;18108;-62
2023/09/17 00:39:09;;;;;;;3.15;1.52;;;;;;;22.21;70.77;99221.22;336875;28;17773;-62
2023/09/17 00:39:21;;;;;;;2.95;1.45;;;;;;;22.21;70.69;99224.69;336097;28;18127;-62
2023/09/17 00:39:33;;;;;;;2.65;1.40;;;;;;;22.21;70.18;99219.41;339042;28;4735;-62
2023/09/17 00:39:45;;;;;;;1.60;1.40;;;;;;;22.22;70.22;99225.56;339258;28;5385;-61
2023/09/17 00:39:57;;;;;;;1.80;1.50;;;;;;;22.21;70.63;99224.69;334060;28;18243;-62
2023/09/17 00:40:12;;;;;;;2.08;1.50;;;;;;;22.22;70.18;99220.25;335421;28;17955;-62
2023/09/17 00:40:28;;;;;;;1.83;1.40;;;;;;;22.21;70.69;99222.03;338578;28;4784;-62
2023/09/17 00:40:41;;;;;;;2.72;1.35;;;;;;;22.22;70.72;99221.09;332166;28;18027;-62
2023/09/17 00:40:53;;;;;;;2.88;1.40;;;;;;;22.21;70.70;99219.41;335751;28;18168;-62
2023/09/17 00:41:05;;;;;;;1.98;1.50;;;;;;;22.19;70.55;99210.75;338355;28;4651;-62
2023/09/17 00:41:17;;;;;;;2.05;1.50;;;;;;;22.21;70.76;99213.28;336353;28;18094;-62
2023/09/17 00:41:32;;;;;;;2.10;1.60;;;;;;;22.19;70.64;99213.41;335106;28;18050;-62
2023/09/17 00:41:44;;;;;;;2.28;1.65;;;;;;;22.21;70.47;99219.41;337887;28;5329;-62
2023/09/17 00:41:56;;;;;;;2.95;1.70;;;;;;;22.21;70.51;99219.41;337947;28;5534;-63
2023/09/17 00:42:08;;;;;;;2.15;1.40;;;;;;;22.20;70.58;99212.44;336198;28;18343;-63
2023/09/17 00:42:20;;;;;;;2.67;1.27;;;;;;;22.22;70.67;99218.44;339052;28;5383;-62
2023/09/17 00:42:32;;;;;;;3.00;1.40;;;;;;;22.21;70.31;99208.81;336582;28;18265;-62
2023/09/17 00:42:45;;;;;;;2.80;1.48;;;;;;;22.22;70.66;99215.78;339013;28;5225;-62
2023/09/17 00:42:57;;;;;;;1.45;1.27;;;;;;;22.23;70.56;99217.47;335817;28;18318;-61
2023/09/17 00:43:09;;;;;;;1.20;1.10;;;;;;;22.25;70.58;99220.00;338104;28;4753;-61
2023/09/17 00:43:22;;;;;;;1.23;1.13;;;;;;;22.25;70.22;99214.72;337651;28;18377;-62
2023/09/17 00:43:34;;;;;;;1.35;1.25;;;;;;;22.27;70.61;99218.06;330326;28;18228;-63
2023/09/17 00:43:46;;;;;;;1.88;1.35;;;;;;;22.27;70.53;99218.88;339055;28;4567;-62
2023/09/17 00:43:58;;;;;;;2.40;1.42;;;;;;;22.28;70.39;99219.75;333714;28;18048;-63
2023/09/17 00:44:11;;;;;;;2.30;1.42;;;;;;;22.28;70.37;99220.59;337921;28;4721;-62
2023/09/17 00:44:23;;;;;;;2.50;1.40;;;;;;;22.27;70.05;99218.88;336623;28;18195;-62
2023/09/17 00:44:35;;;;;;;2.10;1.50;;;;;;;22.25;70.09;99223.47;339048;28;4672;-63
2023/09/17 00:44:47;;;;;;;1.92;1.42;;;;;;;22.23;70.35;99217.47;335939;28;17937;-63
2023/09/17 00:44:59;;;;;;;1.85;1.40;;;;;;;22.21;70.66;99214.09;338529;28;4702;-61
2023/09/17 00:45:13;;;;;;;1.90;1.33;;;;;;;22.18;70.46;99219.69;336137;28;17993;-63
2023/09/17 00:45:26;;;;;;;1.88;1.45;;;;;;;22.18;70.44;99219.69;338533;28;4670;-62
2023/09/17 00:45:40;;;;;;;2.00;1.48;;;;;;;22.17;70.46;99218.00;336500;28;18455;-62
2023/09/17 00:45:53;;;;;;;2.28;1.50;;;;;;;22.14;70.63;99221.75;336161;28;18870;-61
2023/09/17 00:46:06;;;;;;;1.80;1.40;;;;;;;22.14;70.55;99226.22;338098;28;4734;-61
2023/09/17 00:46:19;;;;;;;1.77;1.40;;;;;;;22.12;70.47;99221.06;335080;28;18178;-62
2023/09/17 00:46:32;;;;;;;1.85;1.40;;;;;;;22.11;70.28;99222.03;332772;28;4666;-62
2023/09/17 00:46:44;;;;;;;2.33;1.33;;;;;;;22.11;70.53;99223.84;335631;28;11896;-63
2023/09/17 00:46:56;;;;;;;2.23;1.40;;;;;;;22.09;70.70;99225.78;338825;28;4728;-61
2023/09/17 00:47:09;;;;;;;1.65;1.40;;;;;;;22.08;70.71;99221.47;336172;28;17147;-62
2023/09/17 00:47:21;;;;;;;2.20;1.40;;;;;;;22.07;70.77;99227.72;338659;28;4648;-62
2023/09/17 00:47:34;;;;;;;2.05;1.35;;;;;;;22.07;71.05;99227.72;335777;28;18300;-62
2023/09/17 00:47:46;;;;;;;2.45;1.42;;;;;;;22.07;71.08;99228.56;338432;28;4751;-62
2023/09/17 00:48:00;;;;;;;2.35;1.40;;;;;;;22.08;70.71;99221.47;337782;28;4648;-63
2023/09/17 00:48:12;;;;;;;2.22;1.30;;;;;;;22.08;71.27;99224.13;335496;28;18177;-62
2023/09/17 00:48:26;;;;;;;2.08;1.48;;;;;;;22.07;70.88;99222.44;336766;28;4719;-61
2023/09/17 00:48:39;;;;;;;5.38;1.85;;;;;;;22.07;71.28;99223.28;337605;28;4938;-61
2023/09/17 00:48:52;;;;;;;4.65;1.65;;;;;;;22.07;70.90;99222.44;335071;28;18075;-62
2023/09/17 00:49:12;;;;;;;4.22;1.38;;;;;;;22.06;70.78;99224.25;335921;28;18504;-62
2023/09/17 00:49:24;;;;;;;2.53;1.30;;;;;;;22.06;70.84;99224.25;337997;28;17693;-62
2023/09/17 00:49:37;;;;;;;1.98;1.30;;;;;;;22.07;70.91;99228.56;336438;28;18045;-62
2023/09/17 00:49:49;;;;;;;2.03;1.40;;;;;;;22.08;71.25;99224.13;336521;28;11024;-62
2023/09/17 00:50:02;;;;;;;2.00;1.30;;;;;;;22.06;71.04;99221.59;338365;28;4699;-62
2023/09/17 00:50:14;;;;;;;2.08;1.48;;;;;;;22.08;71.12;99218.81;336030;28;18299;-61
2023/09/17 00:50:27;;;;;;;2.35;1.50;;;;;;;22.07;70.71;99227.72;338639;28;4680;-62
2023/09/17 00:50:39;;;;;;;2.75;1.52;;;;;;;22.07;71.21;99218.00;336767;28;5256;-62
2023/09/17 00:50:52;;;;;;;2.60;1.45;;;;;;;22.07;71.31;99227.72;338654;28;5377;-62
2023/09/17 00:51:04;;;;;;;2.60;1.52;;;;;;;22.07;71.00;99223.28;333527;28;4692;-62
2023/09/17 00:51:16;;;;;;;2.13;1.48;;;;;;;22.08;71.25;99224.13;336249;28;18978;-62
2023/09/17 00:51:28;;;;;;;1.95;1.40;;;;;;;22.08;70.65;99219.66;338737;28;4660;-63
2023/09/17 00:51:41;;;;;;;1.75;1.30;;;;;;;22.09;71.28;99228.41;336444;28;5271;-62
2023/09/17 00:51:54;;;;;;;1.60;1.30;;;;;;;22.09;71.32;99225.78;338950;28;4573;-61
2023/09/17 00:52:15;;;;;;;1.55;1.30;;;;;;;22.06;71.27;99226.06;335959;28;12060;-62
2023/09/17 00:52:28;;;;;;;1.80;1.38;;;;;;;22.06;71.31;99224.25;331402;28;18284;-62
2023/09/17 00:52:40;;;;;;;2.03;1.40;;;;;;;22.06;71.04;99226.06;336329;28;12506;-62
2023/09/17 00:52:52;;;;;;;2.08;1.30;;;;;;;22.06;71.47;99226.06;338823;28;5544;-62
2023/09/17 00:53:05;;;;;;;2.13;1.25;;;;;;;22.05;71.37;99224.38;339456;28;4668;-62
2023/09/17 00:53:17;;;;;;;2.10;1.50;;;;;;;22.04;71.37;99225.34;336413;28;18578;-62
2023/09/17 00:53:29;;;;;;;1.90;1.55;;;;;;;22.05;71.47;99219.06;338699;28;4648;-61
2023/09/17 00:53:41;;;;;;;1.83;1.55;;;;;;;22.05;70.93;99225.19;335598;28;18048;-63
2023/09/17 00:53:56;;;;;;;1.77;1.45;;;;;;;22.06;71.40;99223.41;339044;28;4682;-62
2023/09/17 00:54:10;;;;;;;1.70;1.48;;;;;;;22.06;71.36;99237.47;336271;28;19237;-62
2023/09/17 00:54:25;;;;;;;1.75;1.50;;;;;;;22.07;70.94;99227.72;333609;28;18086;-62
2023/09/17 00:54:40;;;;;;;1.75;1.27;;;;;;;22.07;71.14;99223.28;334843;28;17893;-62
2023/09/17 00:54:54;;;;;;;1.85;1.20;;;;;;;22.07;70.94;99227.72;334994;28;18192;-60
2023/09/17 00:55:08;;;;;;;2.40;1.40;;;;;;;22.06;71.22;99226.06;335931;28;17967;-61
2023/09/17 00:55:20;;;;;;;2.40;1.48;;;;;;;22.05;71.21;99227.00;337585;28;5820;-62
2023/09/17 00:55:33;;;;;;;3.05;1.60;;;;;;;22.04;71.29;99222.72;337905;28;18394;-63
2023/09/17 00:55:45;;;;;;;2.90;1.55;;;;;;;22.02;71.37;99225.47;336540;28;18237;-61
2023/09/17 00:55:58;;;;;;;1.88;1.33;;;;;;;22.00;71.21;99222.13;336059;28;10276;-62
2023/09/17 00:56:11;;;;;;;2.20;1.40;;;;;;;21.99;71.00;99225.72;338583;28;4780;-62
2023/09/17 00:56:25;;;;;;;2.20;1.30;;;;;;;22.00;71.46;99216.00;336594;28;4652;-62
2023/09/17 00:56:37;;;;;;;3.50;1.40;;;;;;;21.99;71.45;99225.72;336248;28;11979;-61
2023/09/17 00:56:51;;;;;;;4.35;1.52;;;;;;;21.98;71.51;99224.06;339090;28;5125;-62
2023/09/17 00:57:03;;;;;;;4.65;1.70;;;;;;;21.99;71.36;99222.25;335887;28;11861;-61
2023/09/17 00:57:16;;;;;;;3.42;1.60;;;;;;;22.00;71.37;99218.66;338821;28;5441;-62
2023/09/17 00:57:28;;;;;;;2.38;1.45;;;;;;;21.99;71.18;99219.63;332422;28;18390;-63
2023/09/17 00:57:45;;;;;;;1.73;1.23;;;;;;;22.01;71.25;99228.25;338906;28;5394;-62
2023/09/17 00:57:59;;;;;;;1.50;1.20;;;;;;;22.01;71.25;99220.31;336289;28;18286;-59
2023/09/17 00:58:12;;;;;;;1.45;1.30;;;;;;;22.02;71.04;99219.34;337862;28;4701;-62
2023/09/17 00:58:27;;;;;;;1.60;1.40;;;;;;;22.00;71.40;99226.59;335452;28;18145;-62
2023/09/17 00:58:40;;;;;;;2.20;1.63;;;;;;;21.98;71.24;99229.38;336365;28;18570;-61
2023/09/17 00:58:52;;;;;;;2.40;1.65;;;;;;;21.99;71.56;99224.91;338656;28;4606;-62
2023/09/17 00:59:06;;;;;;;2.20;1.60;;;;;;;21.99;71.46;99227.56;336162;28;18481;-60
2023/09/17 00:59:18;;;;;;;2.08;1.50;;;;;;;22.00;71.48;99226.59;335819;28;5501;-62
2023/09/17 00:59:34;;;;;;;1.92;1.20;;;;;;;21.99;71.53;99215.16;338850;28;5030;-62
2023/09/17 00:59:49;;;;;;;1.55;1.13;;;;;;;22.00;71.11;99224.78;335955;28;17906;-62
2023/09/17 01:00:08;;;;;;;1.40;1.25;;;;;;;22.02;71.02;99219.34;336128;28;17875;-62
2023/09/17 01:00:21;;;;;;;2.47;1.30;;;;;;;22.03;71.10;99226.31;334907;28;17590;-63
2023/09/17 01:00:38;;;;;;;2.40;1.30;;;;;;;22.02;71.10;99219.34;335117;28;17254;-61
2023/09/17 01:00:51;;;;;;;2.08;1.20;;;;;;;22.00;71.31;99213.38;335155;28;17784;-63